sensor_id;sensor_type;location;lat;lon;timestamp;P1;durP1;ratioP1;P2;durP2;ratioP2
47882;SDS011;37739;50.350;7.578;2024-02-04T00:02:10;1.00;;;0.70;;
47882;SDS011;37739;50.350;7.578;2024-02-04T00:04:39;1.00;;;0.73;;
47882;SDS011;37739;50.350;7.578;2024-02-04T00:07:06;1.43;;;0.93;;
47882;SDS011;37739;50.350;7.578;2024-02-04T00:09:32;0.83;;;0.70;;
47882;SDS011;37739;50.350;7.578;2024-02-04T00:11:57;0.90;;;0.80;;
47882;SDS011;37739;50.350;7.578;2024-02-04T00:14:23;0.90;;;0.60;;
47882;SDS011;37739;50.350;7.578;2024-02-04T00:16:49;0.80;;;0.50;;
47882;SDS011;37739;50.350;7.578;2024-02-04T00:19:14;1.27;;;0.87;;
47882;SDS011;37739;50.350;7.578;2024-02-04T00:21:42;0.90;;;0.50;;
47882;SDS011;37739;50.350;7.578;2024-02-04T00:24:07;1.00;;;0.90;;
47882;SDS011;37739;50.350;7.578;2024-02-04T00:26:32;4.30;;;2.20;;
47882;SDS011;37739;50.350;7.578;2024-02-04T00:28:58;2.30;;;1.80;;
47882;SDS011;37739;50.350;7.578;2024-02-04T00:31:23;3.00;;;2.50;;
47882;SDS011;37739;50.350;7.578;2024-02-04T00:33:48;1.90;;;1.47;;
47882;SDS011;37739;50.350;7.578;2024-02-04T00:36:16;2.73;;;1.80;;
47882;SDS011;37739;50.350;7.578;2024-02-04T00:38:45;2.27;;;1.60;;
47882;SDS011;37739;50.350;7.578;2024-02-04T00:41:13;1.83;;;1.47;;
47882;SDS011;37739;50.350;7.578;2024-02-04T00:43:38;2.80;;;2.00;;
47882;SDS011;37739;50.350;7.578;2024-02-04T00:46:06;3.17;;;2.07;;
47882;SDS011;37739;50.350;7.578;2024-02-04T00:48:35;1.67;;;1.53;;
47882;SDS011;37739;50.350;7.578;2024-02-04T00:51:05;2.23;;;1.87;;
47882;SDS011;37739;50.350;7.578;2024-02-04T00:53:33;3.17;;;2.60;;
47882;SDS011;37739;50.350;7.578;2024-02-04T00:56:02;2.90;;;2.30;;
47882;SDS011;37739;50.350;7.578;2024-02-04T00:58:30;3.60;;;2.73;;
47882;SDS011;37739;50.350;7.578;2024-02-04T01:00:56;2.70;;;2.37;;
47882;SDS011;37739;50.350;7.578;2024-02-04T01:03:23;2.10;;;1.77;;
47882;SDS011;37739;50.350;7.578;2024-02-04T01:05:49;4.47;;;3.50;;
47882;SDS011;37739;50.350;7.578;2024-02-04T01:08:16;1.73;;;1.63;;
47882;SDS011;37739;50.350;7.578;2024-02-04T01:10:44;3.00;;;2.30;;
47882;SDS011;37739;50.350;7.578;2024-02-04T01:13:12;1.20;;;1.10;;
47882;SDS011;37739;50.350;7.578;2024-02-04T01:15:37;1.57;;;1.47;;
47882;SDS011;37739;50.350;7.578;2024-02-04T01:18:03;1.50;;;1.30;;
47882;SDS011;37739;50.350;7.578;2024-02-04T01:20:28;1.90;;;1.10;;
47882;SDS011;37739;50.350;7.578;2024-02-04T01:22:56;1.03;;;0.90;;
47882;SDS011;37739;50.350;7.578;2024-02-04T01:25:23;1.30;;;0.90;;
47882;SDS011;37739;50.350;7.578;2024-02-04T01:27:49;1.67;;;1.00;;
47882;SDS011;37739;50.350;7.578;2024-02-04T01:30:14;1.00;;;0.77;;
47882;SDS011;37739;50.350;7.578;2024-02-04T01:32:39;0.97;;;0.70;;
47882;SDS011;37739;50.350;7.578;2024-02-04T01:35:07;1.60;;;0.70;;
47882;SDS011;37739;50.350;7.578;2024-02-04T01:37:35;1.00;;;0.80;;
47882;SDS011;37739;50.350;7.578;2024-02-04T01:40:03;1.17;;;1.07;;
47882;SDS011;37739;50.350;7.578;2024-02-04T01:42:30;1.10;;;0.80;;
47882;SDS011;37739;50.350;7.578;2024-02-04T01:44:57;1.20;;;0.80;;
47882;SDS011;37739;50.350;7.578;2024-02-04T01:47:23;1.20;;;0.97;;
47882;SDS011;37739;50.350;7.578;2024-02-04T01:49:48;1.00;;;0.77;;
47882;SDS011;37739;50.350;7.578;2024-02-04T01:52:14;1.03;;;0.73;;
47882;SDS011;37739;50.350;7.578;2024-02-04T01:54:41;0.90;;;0.70;;
47882;SDS011;37739;50.350;7.578;2024-02-04T01:57:10;0.90;;;0.70;;
47882;SDS011;37739;50.350;7.578;2024-02-04T01:59:39;1.00;;;0.60;;
47882;SDS011;37739;50.350;7.578;2024-02-04T02:02:05;0.80;;;0.60;;
47882;SDS011;37739;50.350;7.578;2024-02-04T02:04:31;1.20;;;0.80;;
47882;SDS011;37739;50.350;7.578;2024-02-04T02:06:59;1.00;;;0.70;;
47882;SDS011;37739;50.350;7.578;2024-02-04T02:09:25;1.00;;;0.63;;
47882;SDS011;37739;50.350;7.578;2024-02-04T02:11:57;1.30;;;0.90;;
47882;SDS011;37739;50.350;7.578;2024-02-04T02:14:26;1.10;;;0.70;;
47882;SDS011;37739;50.350;7.578;2024-02-04T02:17:00;1.23;;;0.70;;
47882;SDS011;37739;50.350;7.578;2024-02-04T02:25:26;1.37;;;0.70;;
47882;SDS011;37739;50.350;7.578;2024-02-04T02:27:58;0.80;;;0.60;;
47882;SDS011;37739;50.350;7.578;2024-02-04T02:30:24;0.80;;;0.60;;
47882;SDS011;37739;50.350;7.578;2024-02-04T02:32:49;0.93;;;0.70;;
47882;SDS011;37739;50.350;7.578;2024-02-04T02:35:17;1.40;;;0.77;;
47882;SDS011;37739;50.350;7.578;2024-02-04T02:40:34;0.80;;;0.50;;
47882;SDS011;37739;50.350;7.578;2024-02-04T02:43:07;1.20;;;0.50;;
47882;SDS011;37739;50.350;7.578;2024-02-04T02:45:35;0.80;;;0.50;;
47882;SDS011;37739;50.350;7.578;2024-02-04T02:48:02;0.77;;;0.50;;
47882;SDS011;37739;50.350;7.578;2024-02-04T02:50:31;1.10;;;0.63;;
47882;SDS011;37739;50.350;7.578;2024-02-04T02:52:56;0.80;;;0.70;;
47882;SDS011;37739;50.350;7.578;2024-02-04T02:55:24;0.77;;;0.50;;
47882;SDS011;37739;50.350;7.578;2024-02-04T02:57:49;1.60;;;0.60;;
47882;SDS011;37739;50.350;7.578;2024-02-04T03:00:14;1.30;;;0.70;;
47882;SDS011;37739;50.350;7.578;2024-02-04T03:02:40;1.40;;;0.60;;
47882;SDS011;37739;50.350;7.578;2024-02-04T03:05:05;1.00;;;0.83;;
47882;SDS011;37739;50.350;7.578;2024-02-04T03:07:30;2.67;;;0.97;;
47882;SDS011;37739;50.350;7.578;2024-02-04T03:09:58;1.27;;;0.90;;
47882;SDS011;37739;50.350;7.578;2024-02-04T03:12:26;1.00;;;0.90;;
47882;SDS011;37739;50.350;7.578;2024-02-04T03:14:51;0.90;;;0.70;;
47882;SDS011;37739;50.350;7.578;2024-02-04T03:17:21;1.17;;;1.07;;
47882;SDS011;37739;50.350;7.578;2024-02-04T03:19:47;1.60;;;1.00;;
47882;SDS011;37739;50.350;7.578;2024-02-04T03:22:16;1.93;;;1.07;;
47882;SDS011;37739;50.350;7.578;2024-02-04T03:24:48;1.60;;;1.50;;
47882;SDS011;37739;50.350;7.578;2024-02-04T03:27:17;1.63;;;1.53;;
47882;SDS011;37739;50.350;7.578;2024-02-04T03:29:45;1.40;;;1.20;;
47882;SDS011;37739;50.350;7.578;2024-02-04T03:32:11;1.73;;;0.93;;
47882;SDS011;37739;50.350;7.578;2024-02-04T03:34:41;1.57;;;1.10;;
47882;SDS011;37739;50.350;7.578;2024-02-04T03:37:06;1.27;;;1.00;;
47882;SDS011;37739;50.350;7.578;2024-02-04T03:39:32;0.90;;;0.70;;
47882;SDS011;37739;50.350;7.578;2024-02-04T03:41:57;1.00;;;0.70;;
47882;SDS011;37739;50.350;7.578;2024-02-04T03:44:22;0.80;;;0.57;;
47882;SDS011;37739;50.350;7.578;2024-02-04T03:46:48;1.10;;;1.00;;
47882;SDS011;37739;50.350;7.578;2024-02-04T03:49:17;1.23;;;0.83;;
47882;SDS011;37739;50.350;7.578;2024-02-04T03:51:43;0.80;;;0.60;;
47882;SDS011;37739;50.350;7.578;2024-02-04T03:54:11;1.00;;;0.60;;
47882;SDS011;37739;50.350;7.578;2024-02-04T03:56:36;0.90;;;0.50;;
47882;SDS011;37739;50.350;7.578;2024-02-04T03:59:01;0.90;;;0.70;;
47882;SDS011;37739;50.350;7.578;2024-02-04T04:01:29;0.83;;;0.60;;
47882;SDS011;37739;50.350;7.578;2024-02-04T04:03:54;1.30;;;0.70;;
47882;SDS011;37739;50.350;7.578;2024-02-04T04:06:20;0.80;;;0.60;;
47882;SDS011;37739;50.350;7.578;2024-02-04T04:08:45;0.90;;;0.70;;
47882;SDS011;37739;50.350;7.578;2024-02-04T04:11:13;1.37;;;0.50;;
47882;SDS011;37739;50.350;7.578;2024-02-04T04:13:38;0.80;;;0.60;;
47882;SDS011;37739;50.350;7.578;2024-02-04T04:16:05;1.67;;;0.63;;
47882;SDS011;37739;50.350;7.578;2024-02-04T04:18:31;1.00;;;0.70;;
47882;SDS011;37739;50.350;7.578;2024-02-04T04:20:58;0.90;;;0.53;;
47882;SDS011;37739;50.350;7.578;2024-02-04T04:23:26;0.90;;;0.50;;
47882;SDS011;37739;50.350;7.578;2024-02-04T04:25:54;1.20;;;0.60;;
47882;SDS011;37739;50.350;7.578;2024-02-04T04:28:19;0.80;;;0.50;;
47882;SDS011;37739;50.350;7.578;2024-02-04T04:30:44;0.90;;;0.40;;
47882;SDS011;37739;50.350;7.578;2024-02-04T04:33:10;1.50;;;0.60;;
47882;SDS011;37739;50.350;7.578;2024-02-04T04:35:37;0.90;;;0.70;;
47882;SDS011;37739;50.350;7.578;2024-02-04T04:38:02;1.20;;;0.70;;
47882;SDS011;37739;50.350;7.578;2024-02-04T04:40:27;0.73;;;0.43;;
47882;SDS011;37739;50.350;7.578;2024-02-04T04:42:56;0.80;;;0.60;;
47882;SDS011;37739;50.350;7.578;2024-02-04T04:45:22;0.90;;;0.70;;
47882;SDS011;37739;50.350;7.578;2024-02-04T04:47:47;0.90;;;0.60;;
47882;SDS011;37739;50.350;7.578;2024-02-04T04:50:15;0.87;;;0.70;;
47882;SDS011;37739;50.350;7.578;2024-02-04T04:52:40;1.63;;;0.50;;
47882;SDS011;37739;50.350;7.578;2024-02-04T04:55:08;0.80;;;0.60;;
47882;SDS011;37739;50.350;7.578;2024-02-04T04:57:33;1.30;;;0.50;;
47882;SDS011;37739;50.350;7.578;2024-02-04T05:00:01;0.90;;;0.80;;
47882;SDS011;37739;50.350;7.578;2024-02-04T05:02:31;0.90;;;0.60;;
47882;SDS011;37739;50.350;7.578;2024-02-04T05:04:57;0.83;;;0.60;;
47882;SDS011;37739;50.350;7.578;2024-02-04T05:07:22;1.50;;;0.80;;
47882;SDS011;37739;50.350;7.578;2024-02-04T05:09:51;0.90;;;0.60;;
47882;SDS011;37739;50.350;7.578;2024-02-04T05:12:16;0.70;;;0.40;;
47882;SDS011;37739;50.350;7.578;2024-02-04T05:14:41;1.33;;;0.70;;
47882;SDS011;37739;50.350;7.578;2024-02-04T05:17:07;0.90;;;0.50;;
47882;SDS011;37739;50.350;7.578;2024-02-04T05:19:35;1.00;;;0.50;;
47882;SDS011;37739;50.350;7.578;2024-02-04T05:22:01;1.43;;;0.50;;
47882;SDS011;37739;50.350;7.578;2024-02-04T05:24:30;0.80;;;0.60;;
47882;SDS011;37739;50.350;7.578;2024-02-04T05:26:56;1.03;;;0.60;;
47882;SDS011;37739;50.350;7.578;2024-02-04T05:29:23;1.60;;;0.53;;
47882;SDS011;37739;50.350;7.578;2024-02-04T05:31:49;1.10;;;0.50;;
47882;SDS011;37739;50.350;7.578;2024-02-04T05:34:14;1.37;;;0.40;;
47882;SDS011;37739;50.350;7.578;2024-02-04T05:36:39;0.70;;;0.40;;
47882;SDS011;37739;50.350;7.578;2024-02-04T05:39:13;0.70;;;0.40;;
47882;SDS011;37739;50.350;7.578;2024-02-04T05:41:41;0.70;;;0.40;;
47882;SDS011;37739;50.350;7.578;2024-02-04T05:44:06;0.80;;;0.40;;
47882;SDS011;37739;50.350;7.578;2024-02-04T05:46:37;0.80;;;0.50;;
47882;SDS011;37739;50.350;7.578;2024-02-04T05:49:03;0.80;;;0.47;;
47882;SDS011;37739;50.350;7.578;2024-02-04T05:51:30;0.90;;;0.60;;
47882;SDS011;37739;50.350;7.578;2024-02-04T05:53:57;0.90;;;0.50;;
47882;SDS011;37739;50.350;7.578;2024-02-04T05:56:22;1.37;;;0.63;;
47882;SDS011;37739;50.350;7.578;2024-02-04T05:58:48;0.83;;;0.53;;
47882;SDS011;37739;50.350;7.578;2024-02-04T06:01:13;1.20;;;0.60;;
47882;SDS011;37739;50.350;7.578;2024-02-04T06:03:41;0.97;;;0.63;;
47882;SDS011;37739;50.350;7.578;2024-02-04T06:06:13;0.90;;;0.60;;
47882;SDS011;37739;50.350;7.578;2024-02-04T06:08:44;0.80;;;0.50;;
47882;SDS011;37739;50.350;7.578;2024-02-04T06:11:13;0.97;;;0.40;;
47882;SDS011;37739;50.350;7.578;2024-02-04T06:13:41;0.80;;;0.47;;
47882;SDS011;37739;50.350;7.578;2024-02-04T06:16:12;1.00;;;0.60;;
47882;SDS011;37739;50.350;7.578;2024-02-04T06:18:40;0.80;;;0.57;;
47882;SDS011;37739;50.350;7.578;2024-02-04T06:21:08;0.90;;;0.40;;
47882;SDS011;37739;50.350;7.578;2024-02-04T06:23:33;1.47;;;0.83;;
47882;SDS011;37739;50.350;7.578;2024-02-04T06:25:59;0.70;;;0.53;;
47882;SDS011;37739;50.350;7.578;2024-02-04T06:28:27;0.80;;;0.50;;
47882;SDS011;37739;50.350;7.578;2024-02-04T06:30:53;1.37;;;0.70;;
47882;SDS011;37739;50.350;7.578;2024-02-04T06:33:20;1.50;;;0.80;;
47882;SDS011;37739;50.350;7.578;2024-02-04T06:35:49;0.70;;;0.50;;
47882;SDS011;37739;50.350;7.578;2024-02-04T06:38:15;0.80;;;0.50;;
47882;SDS011;37739;50.350;7.578;2024-02-04T06:40:40;1.00;;;0.47;;
47882;SDS011;37739;50.350;7.578;2024-02-04T06:43:08;0.80;;;0.50;;
47882;SDS011;37739;50.350;7.578;2024-02-04T06:45:36;0.83;;;0.67;;
47882;SDS011;37739;50.350;7.578;2024-02-04T06:48:01;0.90;;;0.60;;
47882;SDS011;37739;50.350;7.578;2024-02-04T06:50:27;1.13;;;0.40;;
47882;SDS011;37739;50.350;7.578;2024-02-04T06:52:55;0.70;;;0.43;;
47882;SDS011;37739;50.350;7.578;2024-02-04T06:55:22;1.00;;;0.60;;
47882;SDS011;37739;50.350;7.578;2024-02-04T06:57:48;1.37;;;0.70;;
47882;SDS011;37739;50.350;7.578;2024-02-04T07:00:13;0.80;;;0.50;;
47882;SDS011;37739;50.350;7.578;2024-02-04T07:02:42;0.90;;;0.50;;
47882;SDS011;37739;50.350;7.578;2024-02-04T07:05:07;1.47;;;0.50;;
47882;SDS011;37739;50.350;7.578;2024-02-04T07:07:38;0.93;;;0.40;;
47882;SDS011;37739;50.350;7.578;2024-02-04T07:10:06;1.53;;;0.50;;
47882;SDS011;37739;50.350;7.578;2024-02-04T07:12:32;0.77;;;0.50;;
47882;SDS011;37739;50.350;7.578;2024-02-04T07:14:57;0.70;;;0.40;;
47882;SDS011;37739;50.350;7.578;2024-02-04T07:17:23;1.00;;;0.50;;
47882;SDS011;37739;50.350;7.578;2024-02-04T07:19:49;1.10;;;0.50;;
47882;SDS011;37739;50.350;7.578;2024-02-04T07:22:17;1.00;;;0.60;;
47882;SDS011;37739;50.350;7.578;2024-02-04T07:24:42;1.30;;;0.50;;
47882;SDS011;37739;50.350;7.578;2024-02-04T07:27:08;2.00;;;1.10;;
47882;SDS011;37739;50.350;7.578;2024-02-04T07:29:33;1.50;;;0.97;;
47882;SDS011;37739;50.350;7.578;2024-02-04T07:31:58;1.83;;;1.60;;
47882;SDS011;37739;50.350;7.578;2024-02-04T07:34:28;1.10;;;0.90;;
47882;SDS011;37739;50.350;7.578;2024-02-04T07:36:53;1.33;;;1.10;;
47882;SDS011;37739;50.350;7.578;2024-02-04T07:39:18;0.90;;;0.80;;
47882;SDS011;37739;50.350;7.578;2024-02-04T07:41:46;1.10;;;0.70;;
47882;SDS011;37739;50.350;7.578;2024-02-04T07:44:11;1.20;;;0.60;;
47882;SDS011;37739;50.350;7.578;2024-02-04T07:46:37;1.43;;;0.60;;
47882;SDS011;37739;50.350;7.578;2024-02-04T07:49:06;0.87;;;0.60;;
47882;SDS011;37739;50.350;7.578;2024-02-04T07:51:34;0.83;;;0.67;;
47882;SDS011;37739;50.350;7.578;2024-02-04T07:54:01;1.23;;;0.90;;
47882;SDS011;37739;50.350;7.578;2024-02-04T07:56:29;0.90;;;0.80;;
47882;SDS011;37739;50.350;7.578;2024-02-04T07:58:56;0.90;;;0.60;;
47882;SDS011;37739;50.350;7.578;2024-02-04T08:01:22;1.20;;;0.63;;
47882;SDS011;37739;50.350;7.578;2024-02-04T08:03:49;1.00;;;0.73;;
47882;SDS011;37739;50.350;7.578;2024-02-04T08:06:14;2.03;;;0.70;;
47882;SDS011;37739;50.350;7.578;2024-02-04T08:08:39;1.43;;;0.67;;
47882;SDS011;37739;50.350;7.578;2024-02-04T08:11:07;0.90;;;0.73;;
47882;SDS011;37739;50.350;7.578;2024-02-04T08:13:32;0.90;;;0.67;;
47882;SDS011;37739;50.350;7.578;2024-02-04T08:15:57;1.07;;;0.73;;
47882;SDS011;37739;50.350;7.578;2024-02-04T08:18:23;0.90;;;0.53;;
47882;SDS011;37739;50.350;7.578;2024-02-04T08:20:55;1.00;;;0.60;;
47882;SDS011;37739;50.350;7.578;2024-02-04T08:23:23;0.90;;;0.60;;
47882;SDS011;37739;50.350;7.578;2024-02-04T08:25:48;0.97;;;0.70;;
47882;SDS011;37739;50.350;7.578;2024-02-04T08:28:17;0.93;;;0.70;;
47882;SDS011;37739;50.350;7.578;2024-02-04T08:30:42;0.90;;;0.70;;
47882;SDS011;37739;50.350;7.578;2024-02-04T08:33:07;1.43;;;0.70;;
47882;SDS011;37739;50.350;7.578;2024-02-04T08:35:33;0.80;;;0.60;;
47882;SDS011;37739;50.350;7.578;2024-02-04T08:37:59;1.67;;;0.73;;
47882;SDS011;37739;50.350;7.578;2024-02-04T08:40:27;0.80;;;0.47;;
47882;SDS011;37739;50.350;7.578;2024-02-04T08:42:54;3.07;;;0.73;;
47882;SDS011;37739;50.350;7.578;2024-02-04T08:45:24;1.20;;;0.80;;
47882;SDS011;37739;50.350;7.578;2024-02-04T08:47:52;0.90;;;0.60;;
47882;SDS011;37739;50.350;7.578;2024-02-04T08:50:17;1.47;;;0.60;;
47882;SDS011;37739;50.350;7.578;2024-02-04T08:52:45;0.80;;;0.60;;
47882;SDS011;37739;50.350;7.578;2024-02-04T08:55:13;0.70;;;0.50;;
47882;SDS011;37739;50.350;7.578;2024-02-04T08:57:38;0.90;;;0.53;;
47882;SDS011;37739;50.350;7.578;2024-02-04T09:00:04;0.90;;;0.53;;
47882;SDS011;37739;50.350;7.578;2024-02-04T09:02:36;1.50;;;0.57;;
47882;SDS011;37739;50.350;7.578;2024-02-04T09:05:04;1.93;;;0.80;;
47882;SDS011;37739;50.350;7.578;2024-02-04T09:07:32;0.90;;;0.60;;
47882;SDS011;37739;50.350;7.578;2024-02-04T09:09:58;0.80;;;0.53;;
47882;SDS011;37739;50.350;7.578;2024-02-04T09:12:25;1.80;;;1.70;;
47882;SDS011;37739;50.350;7.578;2024-02-04T09:14:53;0.90;;;0.70;;
47882;SDS011;37739;50.350;7.578;2024-02-04T09:17:18;0.97;;;0.80;;
47882;SDS011;37739;50.350;7.578;2024-02-04T09:19:46;1.30;;;0.90;;
47882;SDS011;37739;50.350;7.578;2024-02-04T09:22:14;2.73;;;2.53;;
47882;SDS011;37739;50.350;7.578;2024-02-04T09:24:41;1.13;;;1.00;;
47882;SDS011;37739;50.350;7.578;2024-02-04T09:27:07;1.63;;;0.90;;
47882;SDS011;37739;50.350;7.578;2024-02-04T09:29:34;0.90;;;0.67;;
47882;SDS011;37739;50.350;7.578;2024-02-04T09:32:00;0.90;;;0.70;;
47882;SDS011;37739;50.350;7.578;2024-02-04T09:34:25;1.00;;;0.70;;
47882;SDS011;37739;50.350;7.578;2024-02-04T09:36:53;1.17;;;0.70;;
47882;SDS011;37739;50.350;7.578;2024-02-04T09:39:18;1.87;;;1.10;;
47882;SDS011;37739;50.350;7.578;2024-02-04T09:41:44;1.47;;;0.90;;
47882;SDS011;37739;50.350;7.578;2024-02-04T09:44:09;1.10;;;0.70;;
47882;SDS011;37739;50.350;7.578;2024-02-04T09:46:35;0.80;;;0.50;;
47882;SDS011;37739;50.350;7.578;2024-02-04T09:49:00;0.80;;;0.50;;
47882;SDS011;37739;50.350;7.578;2024-02-04T09:51:27;1.43;;;0.63;;
47882;SDS011;37739;50.350;7.578;2024-02-04T09:53:53;0.77;;;0.50;;
47882;SDS011;37739;50.350;7.578;2024-02-04T09:56:25;0.80;;;0.50;;
47882;SDS011;37739;50.350;7.578;2024-02-04T09:58:51;0.70;;;0.40;;
47882;SDS011;37739;50.350;7.578;2024-02-04T10:01:18;0.70;;;0.40;;
47882;SDS011;37739;50.350;7.578;2024-02-04T10:03:44;0.80;;;0.50;;
47882;SDS011;37739;50.350;7.578;2024-02-04T10:06:14;0.80;;;0.50;;
47882;SDS011;37739;50.350;7.578;2024-02-04T10:08:42;0.97;;;0.57;;
47882;SDS011;37739;50.350;7.578;2024-02-04T10:11:07;0.90;;;0.50;;
47882;SDS011;37739;50.350;7.578;2024-02-04T10:13:42;1.00;;;0.70;;
47882;SDS011;37739;50.350;7.578;2024-02-04T10:16:16;1.13;;;0.87;;
47882;SDS011;37739;50.350;7.578;2024-02-04T10:18:47;2.40;;;1.13;;
47882;SDS011;37739;50.350;7.578;2024-02-04T10:21:19;1.93;;;1.13;;
47882;SDS011;37739;50.350;7.578;2024-02-04T10:23:49;1.40;;;0.80;;
47882;SDS011;37739;50.350;7.578;2024-02-04T10:26:15;1.20;;;0.83;;
47882;SDS011;37739;50.350;7.578;2024-02-04T10:28:47;2.63;;;2.33;;
47882;SDS011;37739;50.350;7.578;2024-02-04T10:31:17;1.63;;;1.47;;
47882;SDS011;37739;50.350;7.578;2024-02-04T10:33:43;0.90;;;0.77;;
47882;SDS011;37739;50.350;7.578;2024-02-04T10:36:11;1.00;;;0.80;;
47882;SDS011;37739;50.350;7.578;2024-02-04T10:38:40;1.00;;;0.60;;
47882;SDS011;37739;50.350;7.578;2024-02-04T10:41:08;1.00;;;0.67;;
47882;SDS011;37739;50.350;7.578;2024-02-04T10:43:39;1.27;;;0.60;;
47882;SDS011;37739;50.350;7.578;2024-02-04T10:46:18;0.80;;;0.50;;
47882;SDS011;37739;50.350;7.578;2024-02-04T10:48:45;0.80;;;0.63;;
47882;SDS011;37739;50.350;7.578;2024-02-04T10:51:30;0.80;;;0.50;;
47882;SDS011;37739;50.350;7.578;2024-02-04T10:53:57;1.00;;;0.70;;
47882;SDS011;37739;50.350;7.578;2024-02-04T10:56:34;1.00;;;0.90;;
47882;SDS011;37739;50.350;7.578;2024-02-04T10:59:04;1.10;;;0.80;;
47882;SDS011;37739;50.350;7.578;2024-02-04T11:01:34;1.57;;;0.70;;
47882;SDS011;37739;50.350;7.578;2024-02-04T11:04:03;0.90;;;0.60;;
47882;SDS011;37739;50.350;7.578;2024-02-04T11:06:33;1.10;;;0.50;;
47882;SDS011;37739;50.350;7.578;2024-02-04T11:09:04;0.70;;;0.40;;
47882;SDS011;37739;50.350;7.578;2024-02-04T11:11:37;0.70;;;0.43;;
47882;SDS011;37739;50.350;7.578;2024-02-04T11:14:11;0.87;;;0.50;;
47882;SDS011;37739;50.350;7.578;2024-02-04T11:16:50;0.80;;;0.50;;
47882;SDS011;37739;50.350;7.578;2024-02-04T11:27:46;1.17;;;0.60;;
47882;SDS011;37739;50.350;7.578;2024-02-04T11:30:14;1.37;;;0.70;;
47882;SDS011;37739;50.350;7.578;2024-02-04T11:32:42;1.43;;;0.57;;
47882;SDS011;37739;50.350;7.578;2024-02-04T11:35:11;0.90;;;0.50;;
47882;SDS011;37739;50.350;7.578;2024-02-04T11:37:39;1.07;;;0.50;;
47882;SDS011;37739;50.350;7.578;2024-02-04T11:40:13;0.93;;;0.50;;
47882;SDS011;37739;50.350;7.578;2024-02-04T11:42:41;0.77;;;0.43;;
47882;SDS011;37739;50.350;7.578;2024-02-04T11:47:34;1.77;;;0.50;;
47882;SDS011;37739;50.350;7.578;2024-02-04T11:50:00;0.80;;;0.50;;
47882;SDS011;37739;50.350;7.578;2024-02-04T11:52:28;0.80;;;0.50;;
47882;SDS011;37739;50.350;7.578;2024-02-04T11:54:53;1.53;;;0.63;;
47882;SDS011;37739;50.350;7.578;2024-02-04T11:57:19;0.93;;;0.50;;
47882;SDS011;37739;50.350;7.578;2024-02-04T11:59:45;0.90;;;0.50;;
47882;SDS011;37739;50.350;7.578;2024-02-04T12:02:15;0.70;;;0.37;;
47882;SDS011;37739;50.350;7.578;2024-02-04T12:04:41;0.87;;;0.40;;
47882;SDS011;37739;50.350;7.578;2024-02-04T12:07:11;0.80;;;0.40;;
47882;SDS011;37739;50.350;7.578;2024-02-04T12:09:40;1.00;;;0.60;;
47882;SDS011;37739;50.350;7.578;2024-02-04T12:12:09;1.00;;;0.50;;
47882;SDS011;37739;50.350;7.578;2024-02-04T12:14:38;0.90;;;0.50;;
47882;SDS011;37739;50.350;7.578;2024-02-04T12:17:10;0.80;;;0.50;;
47882;SDS011;37739;50.350;7.578;2024-02-04T12:19:36;0.87;;;0.50;;
47882;SDS011;37739;50.350;7.578;2024-02-04T12:22:03;0.90;;;0.60;;
47882;SDS011;37739;50.350;7.578;2024-02-04T12:24:34;0.83;;;0.50;;
47882;SDS011;37739;50.350;7.578;2024-02-04T12:27:03;1.17;;;0.60;;
47882;SDS011;37739;50.350;7.578;2024-02-04T12:29:30;0.97;;;0.57;;
47882;SDS011;37739;50.350;7.578;2024-02-04T12:32:00;1.00;;;0.70;;
47882;SDS011;37739;50.350;7.578;2024-02-04T12:34:26;1.20;;;0.50;;
47882;SDS011;37739;50.350;7.578;2024-02-04T12:37:00;1.00;;;0.50;;
47882;SDS011;37739;50.350;7.578;2024-02-04T12:39:29;1.00;;;0.70;;
47882;SDS011;37739;50.350;7.578;2024-02-04T12:41:58;0.93;;;0.50;;
47882;SDS011;37739;50.350;7.578;2024-02-04T12:44:23;0.87;;;0.60;;
47882;SDS011;37739;50.350;7.578;2024-02-04T12:46:51;1.20;;;0.60;;
47882;SDS011;37739;50.350;7.578;2024-02-04T12:49:18;0.90;;;0.60;;
47882;SDS011;37739;50.350;7.578;2024-02-04T12:51:48;0.90;;;0.60;;
47882;SDS011;37739;50.350;7.578;2024-02-04T12:54:13;0.83;;;0.53;;
47882;SDS011;37739;50.350;7.578;2024-02-04T12:56:47;0.80;;;0.40;;
47882;SDS011;37739;50.350;7.578;2024-02-04T12:59:25;0.90;;;0.50;;
47882;SDS011;37739;50.350;7.578;2024-02-04T13:01:56;1.13;;;0.70;;
47882;SDS011;37739;50.350;7.578;2024-02-04T13:04:36;0.80;;;0.60;;
47882;SDS011;37739;50.350;7.578;2024-02-04T13:07:09;1.00;;;0.70;;
47882;SDS011;37739;50.350;7.578;2024-02-04T13:09:37;1.43;;;0.90;;
47882;SDS011;37739;50.350;7.578;2024-02-04T13:12:08;1.70;;;1.00;;
47882;SDS011;37739;50.350;7.578;2024-02-04T13:14:41;1.57;;;0.60;;
47882;SDS011;37739;50.350;7.578;2024-02-04T13:17:06;0.83;;;0.50;;
47882;SDS011;37739;50.350;7.578;2024-02-04T13:19:33;0.97;;;0.70;;
47882;SDS011;37739;50.350;7.578;2024-02-04T13:22:01;1.40;;;0.90;;
47882;SDS011;37739;50.350;7.578;2024-02-04T13:24:28;2.43;;;1.50;;
47882;SDS011;37739;50.350;7.578;2024-02-04T13:26:56;1.77;;;1.37;;
47882;SDS011;37739;50.350;7.578;2024-02-04T13:29:28;3.33;;;2.30;;
47882;SDS011;37739;50.350;7.578;2024-02-04T13:31:53;2.23;;;2.00;;
47882;SDS011;37739;50.350;7.578;2024-02-04T13:34:19;2.30;;;1.90;;
47882;SDS011;37739;50.350;7.578;2024-02-04T13:36:48;1.27;;;0.97;;
47882;SDS011;37739;50.350;7.578;2024-02-04T13:39:16;1.10;;;1.00;;
47882;SDS011;37739;50.350;7.578;2024-02-04T13:41:43;1.97;;;0.80;;
47882;SDS011;37739;50.350;7.578;2024-02-04T13:44:09;2.30;;;1.80;;
47882;SDS011;37739;50.350;7.578;2024-02-04T13:46:37;3.00;;;2.53;;
47882;SDS011;37739;50.350;7.578;2024-02-04T13:49:07;1.50;;;1.40;;
47882;SDS011;37739;50.350;7.578;2024-02-04T13:51:33;1.60;;;1.50;;
47882;SDS011;37739;50.350;7.578;2024-02-04T13:54:02;1.90;;;1.50;;
47882;SDS011;37739;50.350;7.578;2024-02-04T13:56:30;1.60;;;1.00;;
47882;SDS011;37739;50.350;7.578;2024-02-04T13:58:58;1.17;;;1.00;;
47882;SDS011;37739;50.350;7.578;2024-02-04T14:01:23;1.10;;;0.90;;
47882;SDS011;37739;50.350;7.578;2024-02-04T14:03:49;0.93;;;0.80;;
47882;SDS011;37739;50.350;7.578;2024-02-04T14:06:15;0.90;;;0.70;;
47882;SDS011;37739;50.350;7.578;2024-02-04T14:08:43;1.03;;;0.63;;
47882;SDS011;37739;50.350;7.578;2024-02-04T14:11:09;0.90;;;0.60;;
47882;SDS011;37739;50.350;7.578;2024-02-04T14:13:34;0.80;;;0.53;;
47882;SDS011;37739;50.350;7.578;2024-02-04T14:15:59;1.03;;;0.63;;
47882;SDS011;37739;50.350;7.578;2024-02-04T14:18:25;0.90;;;0.70;;
47882;SDS011;37739;50.350;7.578;2024-02-04T14:20:52;0.80;;;0.60;;
47882;SDS011;37739;50.350;7.578;2024-02-04T14:23:18;1.30;;;0.90;;
47882;SDS011;37739;50.350;7.578;2024-02-04T14:25:45;1.63;;;0.73;;
47882;SDS011;37739;50.350;7.578;2024-02-04T14:28:11;1.10;;;0.80;;
47882;SDS011;37739;50.350;7.578;2024-02-04T14:30:39;0.90;;;0.70;;
47882;SDS011;37739;50.350;7.578;2024-02-04T14:33:04;1.40;;;1.00;;
47882;SDS011;37739;50.350;7.578;2024-02-04T14:35:30;0.87;;;0.53;;
47882;SDS011;37739;50.350;7.578;2024-02-04T14:37:57;0.80;;;0.50;;
47882;SDS011;37739;50.350;7.578;2024-02-04T14:40:26;0.80;;;0.57;;
47882;SDS011;37739;50.350;7.578;2024-02-04T14:42:52;1.20;;;0.63;;
47882;SDS011;37739;50.350;7.578;2024-02-04T14:45:17;0.90;;;0.70;;
47882;SDS011;37739;50.350;7.578;2024-02-04T14:47:43;0.90;;;0.50;;
47882;SDS011;37739;50.350;7.578;2024-02-04T14:50:09;0.80;;;0.57;;
47882;SDS011;37739;50.350;7.578;2024-02-04T14:52:34;1.40;;;0.80;;
47882;SDS011;37739;50.350;7.578;2024-02-04T14:55:02;1.20;;;0.97;;
47882;SDS011;37739;50.350;7.578;2024-02-04T14:57:27;1.03;;;0.80;;
47882;SDS011;37739;50.350;7.578;2024-02-04T14:59:53;1.43;;;1.03;;
47882;SDS011;37739;50.350;7.578;2024-02-04T15:02:19;0.90;;;0.70;;
47882;SDS011;37739;50.350;7.578;2024-02-04T15:04:47;2.20;;;1.33;;
47882;SDS011;37739;50.350;7.578;2024-02-04T15:07:12;1.60;;;1.30;;
47882;SDS011;37739;50.350;7.578;2024-02-04T15:09:40;1.17;;;0.90;;